createdAt,value
2023-03-26T00:00:12.714Z,10.30
2023-03-26T00:03:16.978Z,10.19
2023-03-26T00:06:22.857Z,10.20
2023-03-26T00:09:25.189Z,10.23
2023-03-26T00:12:27.819Z,10.24
2023-03-26T00:15:30.925Z,10.34
2023-03-26T00:18:34.947Z,10.33
2023-03-26T00:21:37.446Z,10.38
2023-03-26T00:24:40.661Z,10.31
2023-03-26T00:27:45.512Z,10.24
2023-03-26T00:30:49.730Z,10.37
2023-03-26T00:33:56.353Z,10.38
2023-03-26T00:37:02.480Z,10.36
2023-03-26T00:40:07.593Z,10.33
2023-03-26T00:43:18.888Z,10.21
2023-03-26T00:46:22.306Z,10.36
2023-03-26T00:49:26.678Z,10.28
2023-03-26T00:52:29.744Z,10.38
2023-03-26T00:55:32.376Z,10.36
2023-03-26T00:58:35.215Z,10.24
2023-03-26T01:01:37.933Z,10.32
2023-03-26T01:04:40.669Z,10.34
2023-03-26T01:07:44.712Z,10.14
2023-03-26T01:10:50.964Z,10.25
2023-03-26T01:14:18.445Z,10.21
2023-03-26T01:17:22.012Z,10.18
2023-03-26T01:20:30.536Z,10.03
2023-03-26T01:23:37.937Z,10.15
2023-03-26T01:26:58.998Z,10.03
2023-03-26T01:30:13.395Z,10.19
2023-03-26T01:33:43.892Z,10.20
2023-03-26T01:37:30.538Z,10.17
2023-03-26T01:41:19.252Z,10.13
2023-03-26T01:44:29.250Z,10.16
2023-03-26T01:47:32.573Z,10.07
2023-03-26T01:50:34.926Z,10.20
2023-03-26T01:53:43.554Z,10.17
2023-03-26T01:56:57.726Z,10.21
2023-03-26T02:00:23.295Z,10.15
2023-03-26T02:03:31.825Z,10.12
2023-03-26T02:06:44.576Z,10.14
2023-03-26T02:09:52.694Z,10.13
2023-03-26T02:12:56.007Z,10.14
2023-03-26T02:16:01.686Z,10.11
2023-03-26T02:19:04.576Z,10.06
2023-03-26T02:22:11.036Z,9.92
2023-03-26T02:25:16.536Z,9.93
2023-03-26T02:28:20.008Z,9.98
2023-03-26T02:31:26.478Z,9.99
2023-03-26T02:34:29.427Z,9.90
2023-03-26T02:37:33.909Z,9.80
2023-03-26T02:40:38.457Z,9.81
2023-03-26T02:43:40.917Z,9.92
2023-03-26T02:46:44.624Z,9.77
2023-03-26T02:49:47.757Z,9.75
2023-03-26T02:52:50.699Z,9.83
2023-03-26T02:55:53.502Z,9.81
2023-03-26T02:58:56.701Z,9.72
2023-03-26T03:01:59.152Z,9.80
2023-03-26T03:05:08.452Z,9.75
2023-03-26T03:08:11.215Z,9.74
2023-03-26T03:11:22.245Z,9.66
2023-03-26T03:14:24.709Z,9.75
2023-03-26T03:17:27.606Z,9.60
2023-03-26T03:20:35.284Z,9.68
2023-03-26T03:23:38.216Z,9.77
2023-03-26T03:26:42.477Z,9.76
2023-03-26T03:29:46.323Z,9.84
2023-03-26T03:32:49.607Z,9.76
2023-03-26T03:35:52.959Z,9.74
2023-03-26T03:38:55.591Z,9.72
2023-03-26T03:41:58.851Z,9.67
2023-03-26T03:45:02.112Z,9.75
2023-03-26T03:48:07.733Z,9.74
2023-03-26T03:51:11.170Z,9.59
2023-03-26T03:54:14.935Z,9.75
2023-03-26T03:57:18.830Z,9.61
2023-03-26T04:00:22.735Z,9.56
2023-03-26T04:03:33.490Z,9.60
2023-03-26T04:06:37.761Z,9.56
2023-03-26T04:09:41.099Z,9.60
2023-03-26T04:12:44.947Z,9.58
2023-03-26T04:15:47.976Z,9.57
2023-03-26T04:18:50.260Z,9.48
2023-03-26T04:21:54.398Z,9.47
2023-03-26T04:24:57.054Z,9.27
2023-03-26T04:28:06.540Z,9.26
2023-03-26T04:31:15.760Z,9.28
2023-03-26T04:34:26.371Z,9.25
2023-03-26T04:37:36.304Z,9.34
2023-03-26T04:40:40.398Z,9.36
2023-03-26T04:43:47.335Z,9.41
2023-03-26T04:46:53.045Z,9.31
2023-03-26T04:49:56.120Z,9.41
2023-03-26T04:52:59.095Z,9.45
2023-03-26T04:56:32.265Z,9.42
2023-03-26T04:59:41.420Z,9.37
2023-03-26T05:02:45.904Z,9.44
2023-03-26T05:05:49.754Z,9.48
2023-03-26T05:08:52.113Z,9.51
2023-03-26T05:11:57.458Z,9.64
2023-03-26T05:15:00.380Z,9.71
2023-03-26T05:18:03.738Z,9.85
2023-03-26T05:21:06.738Z,9.98
2023-03-26T05:24:09.537Z,10.06
2023-03-26T05:27:17.070Z,10.08
2023-03-26T05:30:21.441Z,10.07
2023-03-26T05:33:24.446Z,10.30
2023-03-26T05:36:28.595Z,10.38
2023-03-26T05:39:33.783Z,10.37
2023-03-26T05:42:39.310Z,10.37
2023-03-26T05:45:42.243Z,10.41
2023-03-26T05:48:45.807Z,10.58
2023-03-26T05:51:48.269Z,10.59
2023-03-26T05:54:51.373Z,10.79
2023-03-26T05:57:56.108Z,10.86
2023-03-26T06:01:09.851Z,10.99
2023-03-26T06:04:16.250Z,11.02
2023-03-26T06:07:19.947Z,11.21
2023-03-26T06:10:24.206Z,11.54
2023-03-26T06:13:26.644Z,11.88
2023-03-26T06:16:29.404Z,11.88
2023-03-26T06:19:31.928Z,12.09
2023-03-26T06:22:34.623Z,12.38
2023-03-26T06:25:38.558Z,12.50
2023-03-26T06:28:41.738Z,12.61
2023-03-26T06:31:45.516Z,12.96
2023-03-26T06:34:48.834Z,13.13
2023-03-26T06:37:51.384Z,13.31
2023-03-26T06:40:54.170Z,13.56
2023-03-26T06:43:56.944Z,13.48
2023-03-26T06:47:00.218Z,13.77
2023-03-26T06:50:05.668Z,14.11
2023-03-26T06:53:11.327Z,13.94
2023-03-26T06:56:15.230Z,14.10
2023-03-26T06:59:18.163Z,13.80
2023-03-26T07:02:27.328Z,13.51
2023-03-26T07:05:41.633Z,13.46
2023-03-26T07:08:44.819Z,13.41
2023-03-26T07:11:49.009Z,13.36
2023-03-26T07:14:53.216Z,13.87
2023-03-26T07:17:57.058Z,14.02
2023-03-26T07:20:59.958Z,14.20
2023-03-26T07:24:05.345Z,14.06
2023-03-26T07:27:31.742Z,14.27
2023-03-26T07:30:59.684Z,14.29
2023-03-26T07:34:25.287Z,14.22
2023-03-26T07:37:49.392Z,14.17
2023-03-26T07:41:12.137Z,14.36
2023-03-26T07:44:35.748Z,14.42
2023-03-26T07:47:42.436Z,14.84
2023-03-26T07:50:48.377Z,15.23
2023-03-26T07:53:53.286Z,15.09
2023-03-26T07:57:02.173Z,15.35
2023-03-26T08:00:22.115Z,14.92
2023-03-26T08:03:50.936Z,15.30
2023-03-26T08:07:08.123Z,15.16
2023-03-26T08:10:48.632Z,14.78
2023-03-26T08:14:00.829Z,14.64
2023-03-26T08:17:13.888Z,14.60
2023-03-26T08:20:34.472Z,14.36
2023-03-26T08:23:50.813Z,14.32
2023-03-26T08:27:13.722Z,14.51
2023-03-26T08:30:22.596Z,14.09
2023-03-26T08:33:27.480Z,14.02
2023-03-26T08:36:30.244Z,14.15
2023-03-26T08:39:32.530Z,14.04
2023-03-26T08:42:37.951Z,14.06
2023-03-26T08:46:14.190Z,13.93
2023-03-26T08:49:17.065Z,14.08
2023-03-26T08:52:34.300Z,13.80
2023-03-26T08:55:56.665Z,13.74
2023-03-26T08:59:25.815Z,13.94
2023-03-26T09:03:06.694Z,14.16
2023-03-26T09:06:17.495Z,14.49
2023-03-26T09:09:48.806Z,15.17
2023-03-26T09:13:24.985Z,14.94
2023-03-26T09:17:10.738Z,15.08
2023-03-26T09:20:34.591Z,15.09
2023-03-26T09:23:43.372Z,15.58
2023-03-26T09:27:07.513Z,16.13
2023-03-26T09:30:36.712Z,16.62
2023-03-26T09:34:05.742Z,16.32
2023-03-26T09:37:21.212Z,16.48
2023-03-26T09:40:52.946Z,15.93
2023-03-26T09:44:17.214Z,16.09
2023-03-26T09:47:52.725Z,16.55
2023-03-26T09:51:07.364Z,16.29
2023-03-26T09:54:39.460Z,15.98
2023-03-26T09:58:21.413Z,15.89
2023-03-26T10:01:33.322Z,16.31
2023-03-26T10:05:11.017Z,16.20
2023-03-26T10:08:39.276Z,16.57
2023-03-26T10:12:11.978Z,16.71
2023-03-26T10:15:17.121Z,16.98
2023-03-26T10:18:44.304Z,17.10
2023-03-26T10:22:16.669Z,16.12
2023-03-26T10:25:33.747Z,16.22
2023-03-26T10:29:00.182Z,15.94
2023-03-26T10:32:22.836Z,15.82
2023-03-26T10:35:43.895Z,15.60
2023-03-26T10:39:09.350Z,15.28
2023-03-26T10:42:37.077Z,14.35
2023-03-26T10:46:10.643Z,14.05
2023-03-26T10:49:22.203Z,13.93
2023-03-26T10:52:46.952Z,14.42
2023-03-26T10:55:57.936Z,15.01
2023-03-26T10:59:06.377Z,15.00
2023-03-26T11:02:37.362Z,14.46
2023-03-26T11:05:54.106Z,14.86
2023-03-26T11:09:15.357Z,14.89
2023-03-26T11:12:26.704Z,15.11
2023-03-26T11:15:33.247Z,15.25
2023-03-26T11:18:43.565Z,14.96
2023-03-26T11:22:13.654Z,15.18
2023-03-26T11:25:22.250Z,16.30
2023-03-26T11:29:32.813Z,15.79
2023-03-26T11:32:45.082Z,15.94
2023-03-26T11:35:51.149Z,15.56
2023-03-26T11:38:57.999Z,15.38
2023-03-26T11:42:08.175Z,15.58
2023-03-26T11:45:18.494Z,15.77
2023-03-26T11:48:33.193Z,16.11
2023-03-26T11:51:38.210Z,16.61
2023-03-26T11:54:40.655Z,17.07
2023-03-26T11:57:50.446Z,17.41
2023-03-26T12:00:54.854Z,17.55
2023-03-26T12:04:04.188Z,17.62
2023-03-26T12:07:12.741Z,17.39
2023-03-26T12:10:28.985Z,16.63
2023-03-26T12:13:39.588Z,16.61
2023-03-26T12:16:59.431Z,16.35
2023-03-26T12:20:22.592Z,16.31
2023-03-26T12:23:38.789Z,16.61
2023-03-26T12:26:45.037Z,16.77
2023-03-26T12:30:10.982Z,16.78
2023-03-26T12:33:26.149Z,17.17
2023-03-26T12:36:31.665Z,17.30
2023-03-26T12:40:10.817Z,17.45
2023-03-26T12:44:54.827Z,17.38
2023-03-26T12:48:00.516Z,17.53
2023-03-26T12:50:17.029Z,18.11
2023-03-26T12:53:41.716Z,18.06
2023-03-26T12:57:22.336Z,17.91
2023-03-26T13:00:31.692Z,17.71
2023-03-26T13:03:59.501Z,17.75
2023-03-26T13:07:15.305Z,17.75
2023-03-26T13:10:30.539Z,17.36
2023-03-26T13:14:14.313Z,17.14
2023-03-26T13:17:32.470Z,17.19
2023-03-26T13:20:53.940Z,17.78
2023-03-26T13:24:02.570Z,17.57
2023-03-26T13:27:16.801Z,17.72
2023-03-26T13:30:31.556Z,17.66
2023-03-26T13:33:44.969Z,17.27
2023-03-26T13:36:47.646Z,17.13
2023-03-26T13:39:56.915Z,17.36
2023-03-26T13:43:19.084Z,17.62
2023-03-26T13:46:27.120Z,17.85
2023-03-26T13:49:37.405Z,18.09
2023-03-26T13:52:46.391Z,17.88
2023-03-26T13:55:55.705Z,17.67
2023-03-26T13:59:03.472Z,17.84
2023-03-26T14:02:15.042Z,17.84
2023-03-26T14:05:24.844Z,17.91
2023-03-26T14:08:27.164Z,18.43
2023-03-26T14:11:46.740Z,18.19
2023-03-26T14:14:59.094Z,18.03
2023-03-26T14:18:06.170Z,17.87
2023-03-26T14:21:46.470Z,17.69
2023-03-26T14:25:13.871Z,17.61
2023-03-26T14:28:41.487Z,18.10
2023-03-26T14:32:09.023Z,17.76
2023-03-26T14:35:39.126Z,17.90
2023-03-26T14:38:57.551Z,17.97
2023-03-26T14:42:07.959Z,17.64
2023-03-26T14:45:48.691Z,17.71
2023-03-26T14:48:53.842Z,17.65
2023-03-26T14:52:18.336Z,17.66
2023-03-26T14:55:23.670Z,17.79
2023-03-26T14:58:54.224Z,17.86
2023-03-26T15:02:34.138Z,17.78
2023-03-26T15:06:04.097Z,17.60
2023-03-26T15:09:46.322Z,17.36
2023-03-26T15:13:12.584Z,17.51
2023-03-26T15:16:33.747Z,17.48
2023-03-26T15:19:57.717Z,17.60
2023-03-26T15:23:24.539Z,17.55
2023-03-26T15:26:49.718Z,17.45
2023-03-26T15:30:00.817Z,17.31
2023-03-26T15:33:10.237Z,17.29
2023-03-26T15:36:34.679Z,17.23
2023-03-26T15:40:19.155Z,17.18
2023-03-26T15:43:21.882Z,17.11
2023-03-26T15:46:33.411Z,17.09
2023-03-26T15:49:42.711Z,17.08
2023-03-26T15:53:29.666Z,16.99
2023-03-26T15:57:01.287Z,17.07
2023-03-26T16:00:22.495Z,17.10
2023-03-26T16:03:39.626Z,17.08
2023-03-26T16:06:54.862Z,16.91
2023-03-26T16:10:32.028Z,16.88
2023-03-26T16:13:34.473Z,16.73
2023-03-26T16:16:57.349Z,16.74
2023-03-26T16:20:46.676Z,16.66
2023-03-26T16:23:49.227Z,16.59
2023-03-26T16:26:51.515Z,16.50
2023-03-26T16:30:00.132Z,16.46
2023-03-26T16:33:19.170Z,16.41
2023-03-26T16:36:30.948Z,16.34
2023-03-26T16:39:44.290Z,16.21
2023-03-26T16:43:20.835Z,16.26
2023-03-26T16:46:52.670Z,16.21
2023-03-26T16:50:14.076Z,16.14
2023-03-26T16:53:58.809Z,16.08
2023-03-26T16:57:41.602Z,16.01
2023-03-26T17:00:59.853Z,15.92
2023-03-26T17:04:25.035Z,15.81
2023-03-26T17:07:38.971Z,15.73
2023-03-26T17:10:56.755Z,15.57
2023-03-26T17:14:11.153Z,15.60
2023-03-26T17:17:19.981Z,15.59
2023-03-26T17:20:33.516Z,15.53
2023-03-26T17:24:00.034Z,15.50
2023-03-26T17:27:41.783Z,15.46
2023-03-26T17:30:56.685Z,15.43
2023-03-26T17:34:39.212Z,15.36
2023-03-26T17:37:45.647Z,15.39
2023-03-26T17:40:54.813Z,15.27
2023-03-26T17:43:57.708Z,15.22
2023-03-26T17:47:00.833Z,15.28
2023-03-26T17:50:06.931Z,15.25
2023-03-26T17:53:21.151Z,15.17
2023-03-26T17:56:29.502Z,15.25
2023-03-26T17:59:32.786Z,15.15
2023-03-26T18:02:42.229Z,15.21
2023-03-26T18:05:46.357Z,15.22
2023-03-26T18:09:37.149Z,15.15
2023-03-26T18:12:57.618Z,15.20
2023-03-26T18:16:14.956Z,15.22
2023-03-26T18:19:21.991Z,15.27
2023-03-26T18:22:28.602Z,15.28
2023-03-26T18:25:33.979Z,15.30
2023-03-26T18:28:42.593Z,15.27
2023-03-26T18:31:48.221Z,15.29
2023-03-26T18:34:59.027Z,15.27
2023-03-26T18:38:03.517Z,15.24
2023-03-26T18:41:15.299Z,15.12
2023-03-26T18:44:19.626Z,15.10
2023-03-26T18:47:22.782Z,15.09
2023-03-26T18:50:36.891Z,14.96
2023-03-26T18:53:48.325Z,14.96
2023-03-26T18:56:52.307Z,15.01
2023-03-26T18:59:57.364Z,14.98
2023-03-26T19:03:08.184Z,14.87
2023-03-26T19:06:14.225Z,14.93
2023-03-26T19:09:31.006Z,14.82
2023-03-26T19:12:35.715Z,14.92
2023-03-26T19:15:38.557Z,14.92
2023-03-26T19:18:44.264Z,14.91
2023-03-26T19:21:48.463Z,14.89
2023-03-26T19:24:57.646Z,14.86
2023-03-26T19:28:00.314Z,14.77
2023-03-26T19:31:14.913Z,14.69
2023-03-26T19:34:31.653Z,14.69
2023-03-26T19:37:34.074Z,14.63
2023-03-26T19:40:36.820Z,14.67
2023-03-26T19:43:39.624Z,14.47
2023-03-26T19:46:53.383Z,14.51
2023-03-26T19:50:01.406Z,14.50
2023-03-26T19:53:29.850Z,14.44
2023-03-26T19:56:33.747Z,14.48
2023-03-26T19:59:36.419Z,14.41
2023-03-26T20:02:38.974Z,14.38
2023-03-26T20:05:41.729Z,14.26
2023-03-26T20:08:44.336Z,14.34
2023-03-26T20:11:47.078Z,14.31
2023-03-26T20:14:49.480Z,14.27
2023-03-26T20:17:55.724Z,14.29
2023-03-26T20:20:58.370Z,14.19
2023-03-26T20:24:01.701Z,14.11
2023-03-26T20:27:04.127Z,14.09
2023-03-26T20:30:08.113Z,14.09
2023-03-26T20:33:17.954Z,14.05
2023-03-26T20:36:32.999Z,13.92
2023-03-26T20:39:37.835Z,13.97
2023-03-26T20:42:41.645Z,13.92
2023-03-26T20:45:45.684Z,13.92
2023-03-26T20:48:48.673Z,13.99
2023-03-26T20:51:51.072Z,13.99
2023-03-26T20:54:53.759Z,13.87
2023-03-26T20:57:56.139Z,13.89
2023-03-26T21:01:01.272Z,13.86
2023-03-26T21:04:04.444Z,13.84
2023-03-26T21:07:17.689Z,13.87
2023-03-26T21:10:21.512Z,13.88
2023-03-26T21:13:37.288Z,13.86
2023-03-26T21:16:39.841Z,13.76
2023-03-26T21:19:43.700Z,13.66
2023-03-26T21:23:06.939Z,13.78
2023-03-26T21:26:26.504Z,13.68
2023-03-26T21:29:29.121Z,13.63
2023-03-26T21:32:32.394Z,13.66
2023-03-26T21:35:35.253Z,13.68
2023-03-26T21:38:38.704Z,13.75
2023-03-26T21:42:05.354Z,13.43
2023-03-26T21:45:09.278Z,13.40
2023-03-26T21:48:12.699Z,13.32
2023-03-26T21:51:19.261Z,12.98
2023-03-26T21:54:30.091Z,12.98
2023-03-26T21:58:12.246Z,12.89
2023-03-26T22:01:36.107Z,13.03
2023-03-26T22:05:04.473Z,12.89
2023-03-26T22:08:10.840Z,12.97
2023-03-26T22:11:13.607Z,13.07
2023-03-26T22:14:15.966Z,13.03
2023-03-26T22:17:19.136Z,12.86
2023-03-26T22:20:27.949Z,12.97
2023-03-26T22:23:38.241Z,12.80
2023-03-26T22:26:41.482Z,12.83
2023-03-26T22:29:44.079Z,12.84
2023-03-26T22:32:46.978Z,12.63
2023-03-26T22:35:49.711Z,12.40
2023-03-26T22:38:54.073Z,12.14
2023-03-26T22:41:57.558Z,12.13
2023-03-26T22:44:59.849Z,12.03
2023-03-26T22:48:04.604Z,11.97
2023-03-26T22:51:09.203Z,12.19
2023-03-26T22:54:11.832Z,12.01
2023-03-26T22:57:14.322Z,11.97
2023-03-26T23:00:19.472Z,11.82
2023-03-26T23:03:35.314Z,11.91
2023-03-26T23:06:38.212Z,11.93
2023-03-26T23:09:40.610Z,11.65
2023-03-26T23:12:43.285Z,11.70
2023-03-26T23:15:48.608Z,11.75
2023-03-26T23:18:51.302Z,11.69
2023-03-26T23:21:53.670Z,11.59
2023-03-26T23:24:56.308Z,11.49
2023-03-26T23:27:58.646Z,11.35
2023-03-26T23:31:04.408Z,11.41
2023-03-26T23:34:06.785Z,11.45
2023-03-26T23:37:11.168Z,11.48
2023-03-26T23:40:13.880Z,11.28
2023-03-26T23:43:17.201Z,11.08
2023-03-26T23:46:23.807Z,11.10
2023-03-26T23:49:27.059Z,10.98
2023-03-26T23:52:30.550Z,10.83
2023-03-26T23:55:36.516Z,10.74
2023-03-26T23:58:40.242Z,10.71
